createdAt,value
2023-02-19T00:00:44.417Z,101545.16
2023-02-19T00:03:16.948Z,101540.03
2023-02-19T00:05:49.553Z,101541.75
2023-02-19T00:08:22.179Z,101548.00
2023-02-19T00:10:54.731Z,101537.34
2023-02-19T00:13:27.356Z,101539.88
2023-02-19T00:16:07.356Z,101537.31
2023-02-19T00:18:40.405Z,101541.13
2023-02-19T00:21:13.727Z,101556.88
2023-02-19T00:23:55.583Z,101540.88
2023-02-19T00:26:29.344Z,101543.53
2023-02-19T00:29:02.467Z,101547.28
2023-02-19T00:31:36.366Z,101541.84
2023-02-19T00:34:11.058Z,101546.22
2023-02-19T00:36:44.223Z,101539.28
2023-02-19T00:39:18.506Z,101547.94
2023-02-19T00:41:51.214Z,101555.09
2023-02-19T00:44:23.786Z,101543.72
2023-02-19T00:46:56.301Z,101542.94
2023-02-19T00:49:28.841Z,101539.38
2023-02-19T00:52:01.508Z,101545.56
2023-02-19T00:54:34.074Z,101545.56
2023-02-19T00:57:06.585Z,101548.25
2023-02-19T00:59:39.143Z,101542.03
2023-02-19T01:02:11.686Z,101548.25
2023-02-19T01:04:44.284Z,101556.97
2023-02-19T01:07:16.840Z,101554.34
2023-02-19T01:09:49.429Z,101552.66
2023-02-19T01:12:24.279Z,101561.56
2023-02-19T01:14:57.640Z,101557.97
2023-02-19T01:17:30.206Z,101563.38
2023-02-19T01:20:02.803Z,101557.94
2023-02-19T01:22:35.319Z,101567.69
2023-02-19T01:25:08.104Z,101567.72
2023-02-19T01:27:40.693Z,101567.66
2023-02-19T01:30:13.721Z,101585.34
2023-02-19T01:32:46.228Z,101573.13
2023-02-19T01:35:18.800Z,101577.53
2023-02-19T01:37:51.353Z,101588.00
2023-02-19T01:40:24.206Z,101584.47
2023-02-19T01:42:56.773Z,101583.69
2023-02-19T01:45:38.231Z,101596.06
2023-02-19T01:48:38.015Z,101585.47
2023-02-19T01:51:18.830Z,101596.09
2023-02-19T01:54:00.306Z,101587.34
2023-02-19T01:56:38.301Z,101591.69
2023-02-19T01:59:12.075Z,101584.72
2023-02-19T02:01:45.686Z,101586.31
2023-02-19T02:04:19.342Z,101584.50
2023-02-19T02:06:56.414Z,101577.63
2023-02-19T02:09:50.046Z,101569.66
2023-02-19T02:12:22.603Z,101581.16
2023-02-19T02:14:55.112Z,101579.41
2023-02-19T02:17:55.354Z,101574.22
2023-02-19T02:21:15.867Z,101575.84
2023-02-19T02:24:21.665Z,101583.69
2023-02-19T02:27:16.096Z,101587.38
2023-02-19T02:30:35.362Z,101585.50
2023-02-19T02:33:26.535Z,101578.66
2023-02-19T02:36:27.053Z,101588.09
2023-02-19T02:39:05.092Z,101588.31
2023-02-19T02:41:45.088Z,101585.63
2023-02-19T02:44:17.645Z,101586.63
2023-02-19T02:46:50.257Z,101582.13
2023-02-19T02:49:24.643Z,101594.63
2023-02-19T02:52:19.812Z,101594.63
2023-02-19T02:55:04.593Z,101597.22
2023-02-19T02:57:37.159Z,101598.94
2023-02-19T03:00:10.561Z,101604.28
2023-02-19T03:02:44.246Z,101602.63
2023-02-19T03:05:42.594Z,101611.47
2023-02-19T03:08:47.782Z,101616.78
2023-02-19T03:11:39.600Z,101612.44
2023-02-19T03:15:07.241Z,101605.31
2023-02-19T03:18:11.824Z,101619.56
2023-02-19T03:20:50.725Z,101610.78
2023-02-19T03:23:49.061Z,101621.34
2023-02-19T03:26:24.610Z,101620.50
2023-02-19T03:29:18.911Z,101618.69
2023-02-19T03:32:01.379Z,101624.03
2023-02-19T03:35:03.485Z,101623.13
2023-02-19T03:37:41.591Z,101616.94
2023-02-19T03:40:15.483Z,101616.91
2023-02-19T03:43:19.601Z,101626.59
2023-02-19T03:46:23.444Z,101631.94
2023-02-19T03:49:09.929Z,101638.03
2023-02-19T03:52:02.759Z,101634.53
2023-02-19T03:54:54.718Z,101637.19
2023-02-19T03:57:54.349Z,101646.03
2023-02-19T04:00:41.588Z,101646.91
2023-02-19T04:03:48.041Z,101653.97
2023-02-19T04:06:30.294Z,101661.91
2023-02-19T04:09:09.246Z,101663.72
2023-02-19T04:11:42.789Z,101668.19
2023-02-19T04:14:23.611Z,101669.00
2023-02-19T04:17:05.402Z,101675.19
2023-02-19T04:19:42.137Z,101669.03
2023-02-19T04:22:17.652Z,101677.72
2023-02-19T04:24:54.079Z,101677.78
2023-02-19T04:27:26.933Z,101685.69
2023-02-19T04:29:59.970Z,101683.94
2023-02-19T04:32:32.764Z,101674.28
2023-02-19T04:35:05.767Z,101687.50
2023-02-19T04:37:38.334Z,101688.38
2023-02-19T04:40:11.504Z,101693.69
2023-02-19T04:42:44.132Z,101716.59
2023-02-19T04:45:16.820Z,101709.56
2023-02-19T04:47:49.485Z,101719.28
2023-02-19T04:50:23.221Z,101729.88
2023-02-19T04:52:55.858Z,101719.34
2023-02-19T04:55:28.656Z,101719.28
2023-02-19T04:58:01.241Z,101730.78
2023-02-19T05:00:34.116Z,101736.94
2023-02-19T05:03:06.795Z,101734.28
2023-02-19T05:05:39.329Z,101744.88
2023-02-19T05:08:11.838Z,101748.41
2023-02-19T05:10:44.376Z,101743.97
2023-02-19T05:13:16.981Z,101763.38
2023-02-19T05:16:04.847Z,101763.38
2023-02-19T05:18:37.475Z,101765.13
2023-02-19T05:21:12.118Z,101764.25
2023-02-19T05:23:44.855Z,101766.88
2023-02-19T05:26:21.598Z,101773.06
2023-02-19T05:28:54.617Z,101768.66
2023-02-19T05:31:27.349Z,101762.47
2023-02-19T05:33:59.852Z,101769.53
2023-02-19T05:36:32.644Z,101773.94
2023-02-19T05:39:06.293Z,101781.84
2023-02-19T05:41:39.093Z,101784.50
2023-02-19T05:44:11.708Z,101783.63
2023-02-19T05:46:44.284Z,101776.59
2023-02-19T05:49:17.007Z,101793.31
2023-02-19T05:51:52.522Z,101781.84
2023-02-19T05:54:25.079Z,101788.00
2023-02-19T05:56:58.369Z,101790.66
2023-02-19T05:59:31.659Z,101789.78
2023-02-19T06:02:04.218Z,101788.00
2023-02-19T06:04:36.816Z,101797.72
2023-02-19T06:07:09.479Z,101780.97
2023-02-19T06:09:42.098Z,101780.13
2023-02-19T06:12:14.603Z,101770.34
2023-02-19T06:14:48.884Z,101791.50
2023-02-19T06:17:21.459Z,101788.84
2023-02-19T06:19:53.941Z,101787.09
2023-02-19T06:22:27.133Z,101793.31
2023-02-19T06:24:59.703Z,101801.25
2023-02-19T06:27:32.265Z,101804.75
2023-02-19T06:30:05.318Z,101812.69
2023-02-19T06:32:38.100Z,101806.47
2023-02-19T06:35:10.627Z,101811.78
2023-02-19T06:37:46.188Z,101817.97
2023-02-19T06:40:19.105Z,101829.41
2023-02-19T06:42:51.728Z,101830.22
2023-02-19T06:45:24.341Z,101831.19
2023-02-19T06:47:56.893Z,101836.50
2023-02-19T06:50:29.413Z,101837.34
2023-02-19T06:53:03.140Z,101838.25
2023-02-19T06:55:35.697Z,101843.53
2023-02-19T06:58:08.242Z,101841.78
2023-02-19T07:00:40.797Z,101846.16
2023-02-19T07:03:13.363Z,101848.84
2023-02-19T07:05:46.071Z,101854.09
2023-02-19T07:08:18.760Z,101845.28
2023-02-19T07:10:57.190Z,101857.63
2023-02-19T07:13:29.787Z,101862.91
2023-02-19T07:16:07.931Z,101865.53
2023-02-19T07:18:40.948Z,101873.50
2023-02-19T07:21:15.469Z,101875.22
2023-02-19T07:23:48.056Z,101869.94
2023-02-19T07:26:22.273Z,101870.84
2023-02-19T07:28:54.844Z,101889.25
2023-02-19T07:31:28.733Z,101898.06
2023-02-19T07:34:01.363Z,101899.88
2023-02-19T07:36:33.889Z,101911.16
2023-02-19T07:39:08.022Z,101912.06
2023-02-19T07:41:41.785Z,101905.88
2023-02-19T07:44:16.422Z,101922.63
2023-02-19T07:46:48.995Z,101927.91
2023-02-19T07:49:21.584Z,101920.00
2023-02-19T07:51:54.208Z,101938.41
2023-02-19T07:54:26.840Z,101930.47
2023-02-19T07:56:59.685Z,101946.34
2023-02-19T07:59:32.358Z,101955.22
2023-02-19T08:02:23.843Z,101951.69
2023-02-19T08:04:56.392Z,101961.34
2023-02-19T08:07:34.606Z,101964.91
2023-02-19T08:10:26.379Z,101966.63
2023-02-19T08:13:19.716Z,101976.34
2023-02-19T08:16:18.343Z,101967.59
2023-02-19T08:18:52.906Z,101971.97
2023-02-19T08:21:25.604Z,101978.28
2023-02-19T08:23:58.305Z,101986.22
2023-02-19T08:26:30.902Z,101985.25
2023-02-19T08:29:05.446Z,101992.38
2023-02-19T08:31:38.356Z,101999.41
2023-02-19T08:34:10.965Z,102007.25
2023-02-19T08:36:44.147Z,102000.28
2023-02-19T08:39:16.759Z,102002.13
2023-02-19T08:41:49.603Z,102007.44
2023-02-19T08:44:22.155Z,101995.97
2023-02-19T08:46:54.660Z,101992.50
2023-02-19T08:49:27.810Z,101997.75
2023-02-19T08:52:00.433Z,102006.59
2023-02-19T08:54:33.069Z,101999.56
2023-02-19T08:57:06.241Z,102006.63
2023-02-19T08:59:38.764Z,102004.81
2023-02-19T09:02:12.673Z,102012.78
2023-02-19T09:04:45.181Z,102016.31
2023-02-19T09:07:18.239Z,102028.69
2023-02-19T09:09:50.734Z,102031.31
2023-02-19T09:12:23.343Z,102028.69
2023-02-19T09:14:55.958Z,102030.47
2023-02-19T09:17:28.541Z,102034.88
2023-02-19T09:20:01.204Z,102021.63
2023-02-19T09:22:33.729Z,102017.16
2023-02-19T09:25:06.390Z,102029.59
2023-02-19T09:27:38.987Z,102022.47
2023-02-19T09:30:11.730Z,102029.56
2023-02-19T09:32:44.272Z,102026.94
2023-02-19T09:35:16.873Z,102028.72
2023-02-19T09:37:49.396Z,102032.22
2023-02-19T09:40:22.474Z,102040.13
2023-02-19T09:42:55.277Z,102045.44
2023-02-19T09:45:27.947Z,102034.00
2023-02-19T09:48:00.571Z,102039.31
2023-02-19T09:50:45.566Z,102041.06
2023-02-19T09:53:27.247Z,102049.00
2023-02-19T09:56:01.406Z,102068.38
2023-02-19T09:58:57.084Z,102081.63
2023-02-19T10:01:38.057Z,102085.09
2023-02-19T10:04:11.437Z,102091.28
2023-02-19T10:06:44.508Z,102080.72
2023-02-19T10:09:26.952Z,102094.81
2023-02-19T10:12:00.409Z,102105.44
2023-02-19T10:14:40.651Z,102111.59
2023-02-19T10:17:29.543Z,102104.50
2023-02-19T10:20:05.356Z,102102.81
2023-02-19T10:22:38.269Z,102122.16
2023-02-19T10:25:17.492Z,102124.84
2023-02-19T10:27:50.284Z,102122.19
2023-02-19T10:30:28.515Z,102118.66
2023-02-19T10:33:12.423Z,102118.69
2023-02-19T10:36:21.764Z,102137.13
2023-02-19T10:38:55.220Z,102135.44
2023-02-19T10:41:28.905Z,102153.13
2023-02-19T10:44:21.511Z,102161.09
2023-02-19T10:46:59.870Z,102154.84
2023-02-19T10:49:40.887Z,102167.22
2023-02-19T10:52:21.022Z,102175.06
2023-02-19T10:55:17.442Z,102168.06
2023-02-19T10:57:50.629Z,102177.88
2023-02-19T11:00:30.599Z,102169.94
2023-02-19T11:03:20.540Z,102164.63
2023-02-19T11:06:04.772Z,102169.94
2023-02-19T11:08:59.051Z,102165.47
2023-02-19T11:11:40.389Z,102164.56
2023-02-19T11:14:22.648Z,102167.16
2023-02-19T11:16:59.328Z,102168.00
2023-02-19T11:19:40.289Z,102164.53
2023-02-19T11:22:35.432Z,102166.28
2023-02-19T11:25:21.913Z,102150.47
2023-02-19T11:28:07.505Z,102151.38
2023-02-19T11:30:45.692Z,102150.50
2023-02-19T11:33:22.170Z,102132.81
2023-02-19T11:36:21.526Z,102146.97
2023-02-19T11:38:56.588Z,102157.56
2023-02-19T11:42:20.252Z,102157.56
2023-02-19T11:45:46.178Z,102158.47
2023-02-19T11:48:55.946Z,102156.69
2023-02-19T11:51:35.888Z,102152.25
2023-02-19T11:54:26.500Z,102158.44
2023-02-19T11:57:31.473Z,102163.78
2023-02-19T12:00:17.886Z,102152.25
2023-02-19T12:03:35.572Z,102159.31
2023-02-19T12:06:55.516Z,102165.50
2023-02-19T12:10:28.316Z,102160.19
2023-02-19T12:13:54.987Z,102151.38
2023-02-19T12:16:40.794Z,102155.78
2023-02-19T12:19:34.474Z,102151.38
2023-02-19T12:22:29.567Z,102140.81
2023-02-19T12:25:28.992Z,102139.91
2023-02-19T12:28:10.536Z,102154.03
2023-02-19T12:31:09.052Z,102155.81
2023-02-19T12:34:34.819Z,102150.50
2023-02-19T12:37:39.771Z,102153.16
2023-02-19T12:40:49.740Z,102157.56
2023-02-19T12:43:24.164Z,102155.78
2023-02-19T12:46:08.238Z,102154.00
2023-02-19T12:48:53.873Z,102155.75
2023-02-19T12:51:34.104Z,102156.63
2023-02-19T12:54:30.764Z,102161.97
2023-02-19T12:57:13.572Z,102161.97
2023-02-19T13:00:23.068Z,102164.66
2023-02-19T13:03:09.639Z,102161.97
2023-02-19T13:06:01.749Z,102169.91
2023-02-19T13:09:07.486Z,102168.16
2023-02-19T13:12:08.716Z,102180.50
2023-02-19T13:14:52.780Z,102191.13
2023-02-19T13:17:38.504Z,102183.19
2023-02-19T13:20:25.119Z,102192.00
2023-02-19T13:23:32.011Z,102192.00
2023-02-19T13:26:41.218Z,102183.16
2023-02-19T13:29:53.354Z,102185.81
2023-02-19T13:33:09.879Z,102206.09
2023-02-19T13:36:08.247Z,102199.91
2023-02-19T13:38:45.990Z,102204.31
2023-02-19T13:41:41.971Z,102218.41
2023-02-19T13:44:27.037Z,102228.94
2023-02-19T13:47:00.887Z,102229.72
2023-02-19T13:49:36.203Z,102226.00
2023-02-19T13:52:30.485Z,102224.31
2023-02-19T13:55:44.177Z,102251.53
2023-02-19T13:58:38.910Z,102251.47
2023-02-19T14:01:14.097Z,102264.75
2023-02-19T14:04:07.179Z,102267.97
2023-02-19T14:07:04.691Z,102263.34
2023-02-19T14:09:37.275Z,102258.00
2023-02-19T14:12:10.134Z,102260.06
2023-02-19T14:14:48.889Z,102274.91
2023-02-19T14:17:42.504Z,102274.94
2023-02-19T14:20:14.911Z,102271.34
2023-02-19T14:22:47.649Z,102267.78
2023-02-19T14:25:45.779Z,102277.78
2023-02-19T14:28:30.641Z,102279.16
2023-02-19T14:31:11.871Z,102275.06
2023-02-19T14:33:49.695Z,102281.97
2023-02-19T14:36:48.690Z,102277.75
2023-02-19T14:39:35.119Z,102267.09
2023-02-19T14:42:32.418Z,102263.66
2023-02-19T14:45:07.978Z,102273.50
2023-02-19T14:47:41.756Z,102268.66
2023-02-19T14:50:29.299Z,102270.75
2023-02-19T14:53:07.298Z,102263.53
2023-02-19T14:55:43.820Z,102255.66
2023-02-19T14:58:28.674Z,102264.50
2023-02-19T15:01:01.311Z,102262.72
2023-02-19T15:03:37.552Z,102257.44
2023-02-19T15:06:19.476Z,102256.56
2023-02-19T15:09:00.179Z,102260.06
2023-02-19T15:11:35.298Z,102249.31
2023-02-19T15:14:20.506Z,102248.56
2023-02-19T15:17:01.195Z,102240.56
2023-02-19T15:19:39.507Z,102238.09
2023-02-19T15:22:24.577Z,102224.88
2023-02-19T15:25:00.459Z,102218.81
2023-02-19T15:27:34.346Z,102228.34
2023-02-19T15:30:27.463Z,102223.28
2023-02-19T15:33:00.698Z,102235.56
2023-02-19T15:35:33.469Z,102232.91
2023-02-19T15:38:11.436Z,102232.78
2023-02-19T15:40:49.060Z,102233.53
2023-02-19T15:43:29.709Z,102248.44
2023-02-19T15:46:18.104Z,102258.66
2023-02-19T15:49:07.910Z,102266.69
2023-02-19T15:51:59.536Z,102273.75
2023-02-19T15:54:42.235Z,102287.63
2023-02-19T15:57:25.299Z,102294.94
2023-02-19T16:00:26.722Z,102303.47
2023-02-19T16:02:59.644Z,102315.84
2023-02-19T16:05:39.293Z,102304.94
2023-02-19T16:08:11.958Z,102308.72
2023-02-19T16:11:22.927Z,102307.00
2023-02-19T16:14:34.226Z,102301.66
2023-02-19T16:17:09.801Z,102304.38
2023-02-19T16:19:56.738Z,102303.22
2023-02-19T16:22:41.847Z,102295.97
2023-02-19T16:25:36.040Z,102306.47
2023-02-19T16:28:18.627Z,102323.50
2023-02-19T16:30:58.457Z,102335.97
2023-02-19T16:33:34.816Z,102339.09
2023-02-19T16:36:33.437Z,102335.66
2023-02-19T16:39:09.304Z,102350.50
2023-02-19T16:41:47.829Z,102344.38
2023-02-19T16:44:30.892Z,102352.06
2023-02-19T16:47:15.221Z,102370.72
2023-02-19T16:49:47.820Z,102357.00
2023-02-19T16:52:20.383Z,102357.72
2023-02-19T16:54:53.250Z,102359.44
2023-02-19T16:57:25.817Z,102364.00
2023-02-19T16:59:58.394Z,102361.41
2023-02-19T17:02:33.336Z,102365.88
2023-02-19T17:05:05.946Z,102369.50
2023-02-19T17:07:38.479Z,102363.09
2023-02-19T17:10:17.812Z,102362.88
2023-02-19T17:12:55.537Z,102362.28
2023-02-19T17:15:28.140Z,102358.03
2023-02-19T17:18:00.626Z,102359.59
2023-02-19T17:20:36.207Z,102364.81
2023-02-19T17:23:08.753Z,102369.44
2023-02-19T17:25:41.344Z,102370.53
2023-02-19T17:28:13.895Z,102379.81
2023-02-19T17:30:46.451Z,102384.28
2023-02-19T17:33:19.005Z,102384.94
2023-02-19T17:35:51.595Z,102380.84
2023-02-19T17:38:24.146Z,102378.16
2023-02-19T17:40:56.720Z,102375.34
2023-02-19T17:43:29.257Z,102386.59
2023-02-19T17:46:01.979Z,102376.59
2023-02-19T17:48:34.560Z,102370.41
2023-02-19T17:51:07.565Z,102389.84
2023-02-19T17:53:40.290Z,102376.31
2023-02-19T17:56:23.577Z,102398.16
2023-02-19T17:58:58.412Z,102395.47
2023-02-19T18:01:31.036Z,102391.75
2023-02-19T18:04:04.131Z,102406.06
2023-02-19T18:06:36.722Z,102396.28
2023-02-19T18:09:11.484Z,102391.13
2023-02-19T18:11:46.469Z,102410.88
2023-02-19T18:14:19.147Z,102407.38
2023-02-19T18:16:51.883Z,102412.16
2023-02-19T18:19:26.065Z,102409.56
2023-02-19T18:21:58.601Z,102414.22
2023-02-19T18:24:31.154Z,102423.31
2023-02-19T18:27:04.310Z,102422.66
2023-02-19T18:29:36.947Z,102415.16
2023-02-19T18:32:09.817Z,102422.03
2023-02-19T18:34:42.436Z,102422.91
2023-02-19T18:37:14.976Z,102428.94
2023-02-19T18:39:47.904Z,102427.94
2023-02-19T18:42:22.544Z,102419.00
2023-02-19T18:44:56.373Z,102422.59
2023-02-19T18:47:28.999Z,102418.31
2023-02-19T18:50:01.719Z,102415.50
2023-02-19T18:52:34.333Z,102405.75
2023-02-19T18:55:07.737Z,102416.00
2023-02-19T18:57:40.377Z,102411.53
2023-02-19T19:00:20.745Z,102413.22
2023-02-19T19:03:00.140Z,102411.38
2023-02-19T19:05:32.729Z,102411.63
2023-02-19T19:08:05.337Z,102421.13
2023-02-19T19:10:37.893Z,102440.81
2023-02-19T19:13:10.584Z,102431.13
2023-02-19T19:15:45.012Z,102422.63
2023-02-19T19:18:18.316Z,102426.94
2023-02-19T19:20:50.973Z,102411.81
2023-02-19T19:23:23.771Z,102415.25
2023-02-19T19:25:56.741Z,102416.88
2023-02-19T19:28:31.249Z,102428.63
2023-02-19T19:31:04.620Z,102422.84
2023-02-19T19:33:37.257Z,102423.00
2023-02-19T19:36:11.531Z,102418.56
2023-02-19T19:38:44.137Z,102416.03
2023-02-19T19:41:20.071Z,102420.38
2023-02-19T19:43:52.664Z,102437.06
2023-02-19T19:46:25.259Z,102417.09
2023-02-19T19:48:57.864Z,102422.91
2023-02-19T19:51:35.473Z,102443.19
2023-02-19T19:54:08.462Z,102449.25
2023-02-19T19:56:47.155Z,102436.06
2023-02-19T19:59:19.996Z,102424.63
2023-02-19T20:02:01.672Z,102435.13
2023-02-19T20:04:34.548Z,102436.00
2023-02-19T20:07:07.153Z,102448.28
2023-02-19T20:09:39.692Z,102448.78
2023-02-19T20:12:12.718Z,102452.00
2023-02-19T20:14:46.731Z,102440.38
2023-02-19T20:17:19.312Z,102447.50
2023-02-19T20:19:51.822Z,102438.97
2023-02-19T20:22:24.758Z,102435.28
2023-02-19T20:24:57.563Z,102444.63
2023-02-19T20:27:30.163Z,102435.81
2023-02-19T20:30:03.468Z,102446.47
2023-02-19T20:32:36.049Z,102452.44
2023-02-19T20:35:08.945Z,102457.75
2023-02-19T20:37:41.611Z,102448.03
2023-02-19T20:40:18.011Z,102449.69
2023-02-19T20:42:50.614Z,102446.03
2023-02-19T20:45:23.384Z,102450.28
2023-02-19T20:47:56.096Z,102437.06
2023-02-19T20:50:28.852Z,102437.84
2023-02-19T20:53:01.417Z,102424.41
2023-02-19T20:55:34.085Z,102424.25
2023-02-19T20:58:09.070Z,102422.56
2023-02-19T21:00:41.580Z,102432.78
2023-02-19T21:03:14.219Z,102423.22
2023-02-19T21:05:47.122Z,102429.84
2023-02-19T21:08:19.650Z,102423.69
2023-02-19T21:10:52.255Z,102419.00
2023-02-19T21:13:24.732Z,102411.97
2023-02-19T21:15:57.332Z,102420.75
2023-02-19T21:18:30.017Z,102423.16
2023-02-19T21:21:02.602Z,102422.34
2023-02-19T21:23:35.162Z,102427.53
2023-02-19T21:26:08.171Z,102424.50
2023-02-19T21:28:40.768Z,102438.69
2023-02-19T21:31:13.849Z,102432.69
2023-02-19T21:33:46.955Z,102427.63
2023-02-19T21:36:19.459Z,102429.63
2023-02-19T21:38:52.045Z,102414.19
2023-02-19T21:41:28.403Z,102416.81
2023-02-19T21:44:01.087Z,102415.13
2023-02-19T21:46:33.678Z,102387.00
2023-02-19T21:49:06.892Z,102384.97
2023-02-19T21:51:42.784Z,102379.97
2023-02-19T21:54:21.149Z,102381.56
2023-02-19T21:56:54.643Z,102382.34
2023-02-19T21:59:27.217Z,102377.16
2023-02-19T22:01:59.864Z,102388.69
2023-02-19T22:04:32.373Z,102389.47
2023-02-19T22:07:04.859Z,102401.63
2023-02-19T22:09:38.802Z,102392.28
2023-02-19T22:12:11.316Z,102400.13
2023-02-19T22:14:44.364Z,102410.81
2023-02-19T22:17:17.012Z,102415.88
2023-02-19T22:19:49.543Z,102417.28
2023-02-19T22:22:22.106Z,102411.38
2023-02-19T22:24:54.764Z,102402.97
2023-02-19T22:27:29.269Z,102406.13
2023-02-19T22:30:01.828Z,102399.13
2023-02-19T22:32:34.470Z,102399.97
2023-02-19T22:35:07.399Z,102399.94
2023-02-19T22:37:39.940Z,102408.75
2023-02-19T22:40:12.974Z,102413.19
2023-02-19T22:42:45.597Z,102399.97
2023-02-19T22:45:18.168Z,102403.22
2023-02-19T22:47:55.644Z,102391.97
2023-02-19T22:50:28.218Z,102398.84
2023-02-19T22:53:00.731Z,102398.66
2023-02-19T22:55:33.271Z,102402.19
2023-02-19T22:58:05.812Z,102392.44
2023-02-19T23:00:38.320Z,102389.81
2023-02-19T23:03:10.977Z,102387.09
2023-02-19T23:05:43.603Z,102381.81
2023-02-19T23:08:16.091Z,102386.22
2023-02-19T23:10:49.798Z,102384.25
2023-02-19T23:13:22.305Z,102385.22
2023-02-19T23:15:54.802Z,102385.22
2023-02-19T23:18:27.299Z,102386.97
2023-02-19T23:20:59.852Z,102381.84
2023-02-19T23:23:32.394Z,102382.97
2023-02-19T23:26:04.999Z,102376.44
2023-02-19T23:28:40.550Z,102368.69
2023-02-19T23:31:14.709Z,102357.47
2023-02-19T23:33:47.420Z,102356.06
2023-02-19T23:36:21.705Z,102353.38
2023-02-19T23:38:54.204Z,102349.22
2023-02-19T23:41:26.673Z,102345.31
2023-02-19T23:43:59.207Z,102331.53
2023-02-19T23:46:33.757Z,102320.25
2023-02-19T23:49:06.513Z,102327.19
2023-02-19T23:51:39.392Z,102322.09
2023-02-19T23:54:12.367Z,102315.50
2023-02-19T23:56:44.914Z,102329.72
2023-02-19T23:59:17.389Z,102328.53
